Time;durP1;ratioP1;P1;durP2;ratioP2;P2;SDS_P1;SDS_P2;PMS_P1;PMS_P2;Temp;Humidity;BMP_temperature;BMP_pressure;BME280_temperature;BME280_humidity;BME280_pressure;Samples;Min_cycle;Max_cycle;Signal;HPM_P1;HPM_P2
2023/05/16 00:01:08;;;;;;;9.47;7.70;;;;;;;;;;5058005;28;20832;-63
2023/05/16 00:03:36;;;;;;;8.07;7.27;;;;;;;;;;5062002;28;20242;-64
2023/05/16 00:06:04;;;;;;;8.60;7.80;;;;;;;;;;5054673;28;20206;-62
2023/05/16 00:08:32;;;;;;;8.50;7.70;;;;;;;;;;5043184;28;20663;-63
2023/05/16 00:11:00;;;;;;;8.40;7.63;;;;;;;;;;5062371;28;20446;-63
2023/05/16 00:13:29;;;;;;;8.63;7.73;;;;;;;;;;5049832;28;20427;-64
2023/05/16 00:15:58;;;;;;;9.53;8.20;;;;;;;;;;5045433;28;20229;-63
2023/05/16 00:18:26;;;;;;;9.83;8.83;;;;;;;;;;5060240;28;20221;-64
2023/05/16 00:20:54;;;;;;;8.90;8.07;;;;;;;;;;5059294;28;20236;-63
2023/05/16 00:23:21;;;;;;;9.33;8.17;;;;;;;;;;5056640;28;20251;-64
2023/05/16 00:25:49;;;;;;;10.87;9.07;;;;;;;;;;5052406;28;20209;-63
2023/05/16 00:28:16;;;;;;;10.43;8.83;;;;;;;;;;5058074;28;20704;-64
2023/05/16 00:30:44;;;;;;;10.37;8.57;;;;;;;;;;5061674;28;20605;-63
2023/05/16 00:33:11;;;;;;;10.97;9.60;;;;;;;;;;5057517;28;20248;-62
2023/05/16 00:35:45;;;;;;;10.20;9.20;;;;;;;;;;5051988;28;20300;-62
2023/05/16 00:38:12;;;;;;;10.07;9.07;;;;;;;;;;5062769;28;20386;-64
2023/05/16 00:40:40;;;;;;;9.77;8.77;;;;;;;;;;5061348;28;20198;-64
2023/05/16 00:43:07;;;;;;;9.60;8.70;;;;;;;;;;5058277;28;20308;-63
2023/05/16 00:45:35;;;;;;;9.93;8.93;;;;;;;;;;5036284;28;20296;-64
2023/05/16 00:48:02;;;;;;;9.77;8.77;;;;;;;;;;5049072;28;20226;-62
2023/05/16 00:50:30;;;;;;;10.50;9.40;;;;;;;;;;5060821;28;20212;-62
2023/05/16 00:52:57;;;;;;;10.33;9.33;;;;;;;;;;5074302;28;20260;-62
2023/05/16 00:55:25;;;;;;;11.53;9.90;;;;;;;;;;5049157;28;20296;-63
2023/05/16 00:57:52;;;;;;;10.90;9.63;;;;;;;;;;5053451;28;20267;-63
2023/05/16 01:00:20;;;;;;;11.17;9.97;;;;;;;;;;5053524;28;20251;-64
2023/05/16 01:02:50;;;;;;;11.23;9.70;;;;;;;;;;5060332;28;20641;-63
2023/05/16 01:05:18;;;;;;;10.97;9.80;;;;;;;;;;5046485;28;20208;-63
2023/05/16 01:07:45;;;;;;;12.80;10.13;;;;;;;;;;5059273;28;20267;-64
2023/05/16 01:10:13;;;;;;;11.60;10.23;;;;;;;;;;5068238;28;20565;-64
2023/05/16 01:12:40;;;;;;;12.83;10.27;;;;;;;;;;5062114;28;20277;-62
2023/05/16 01:15:09;;;;;;;11.80;10.07;;;;;;;;;;5063657;28;20617;-63
2023/05/16 01:17:45;;;;;;;12.10;9.60;;;;;;;;;;5054559;28;20237;-64
2023/05/16 01:20:19;;;;;;;10.90;9.90;;;;;;;;;;5049611;28;20663;-63
2023/05/16 01:22:46;;;;;;;10.60;9.50;;;;;;;;;;5052067;28;20205;-64
2023/05/16 01:25:13;;;;;;;12.50;9.93;;;;;;;;;;5039995;28;20343;-63
2023/05/16 01:27:41;;;;;;;10.67;9.60;;;;;;;;;;5055775;28;20720;-63
2023/05/16 01:30:16;;;;;;;10.67;9.57;;;;;;;;;;5057711;28;20606;-64
2023/05/16 01:32:43;;;;;;;10.70;9.60;;;;;;;;;;5042885;28;20651;-62
2023/05/16 01:35:12;;;;;;;9.73;8.63;;;;;;;;;;5060426;28;20259;-63
2023/05/16 01:38:00;;;;;;;10.70;9.57;;;;;;;;;;5061614;28;20241;-64
2023/05/16 01:40:27;;;;;;;10.33;9.13;;;;;;;;;;5030187;28;20212;-63
2023/05/16 01:42:55;;;;;;;11.87;10.50;;;;;;;;;;5052060;28;20289;-64
2023/05/16 01:45:28;;;;;;;13.53;11.30;;;;;;;;;;5024738;28;20234;-63
2023/05/16 01:48:01;;;;;;;15.83;13.73;;;;;;;;;;5041979;28;20504;-63
2023/05/16 01:50:29;;;;;;;18.20;14.03;;;;;;;;;;5057406;28;20228;-63
2023/05/16 01:52:59;;;;;;;17.53;15.37;;;;;;;;;;5068052;28;20295;-63
2023/05/16 01:55:45;;;;;;;18.47;16.47;;;;;;;;;;5036890;28;20225;-63
2023/05/16 01:58:14;;;;;;;21.47;17.97;;;;;;;;;;5034188;28;20252;-64
2023/05/16 02:00:41;;;;;;;23.77;18.37;;;;;;;;;;5037492;28;20268;-64
2023/05/16 02:03:09;;;;;;;23.57;19.63;;;;;;;;;;5068565;28;20206;-64
2023/05/16 02:05:36;;;;;;;23.57;18.63;;;;;;;;;;5051821;28;20219;-64
2023/05/16 02:08:05;;;;;;;24.40;19.07;;;;;;;;;;5054673;28;20225;-62
2023/05/16 02:10:33;;;;;;;25.23;19.57;;;;;;;;;;5057977;28;20263;-63
2023/05/16 02:13:00;;;;;;;22.50;18.10;;;;;;;;;;5038237;28;20233;-63
2023/05/16 02:15:28;;;;;;;21.27;18.23;;;;;;;;;;5035546;28;20206;-63
2023/05/16 02:17:55;;;;;;;25.07;18.50;;;;;;;;;;5052984;28;20227;-63
2023/05/16 02:20:23;;;;;;;24.40;19.93;;;;;;;;;;5049981;28;20202;-63
2023/05/16 02:22:51;;;;;;;24.57;20.33;;;;;;;;;;5048314;28;20589;-64
2023/05/16 02:25:19;;;;;;;27.67;21.00;;;;;;;;;;5036319;28;20212;-62
2023/05/16 02:27:48;;;;;;;24.50;20.20;;;;;;;;;;5042536;28;20308;-62
2023/05/16 02:30:15;;;;;;;25.67;21.00;;;;;;;;;;5040547;28;20210;-65
2023/05/16 02:32:45;;;;;;;27.30;20.90;;;;;;;;;;5032409;28;20214;-63
2023/05/16 02:35:13;;;;;;;31.47;22.17;;;;;;;;;;5038333;28;20218;-62
2023/05/16 02:37:40;;;;;;;31.43;23.63;;;;;;;;;;5042476;28;20229;-64
2023/05/16 02:40:08;;;;;;;31.87;24.20;;;;;;;;;;5053756;28;20232;-64
2023/05/16 02:42:36;;;;;;;35.07;25.20;;;;;;;;;;5055074;28;21017;-63
2023/05/16 02:45:05;;;;;;;38.00;27.33;;;;;;;;;;5045336;28;20209;-64
2023/05/16 02:47:32;;;;;;;41.03;28.10;;;;;;;;;;5060826;28;20301;-63
2023/05/16 02:50:00;;;;;;;40.20;27.87;;;;;;;;;;5058066;28;20267;-63
2023/05/16 02:52:27;;;;;;;38.57;27.47;;;;;;;;;;5043176;28;20244;-64
2023/05/16 02:54:55;;;;;;;41.40;28.73;;;;;;;;;;5042041;28;20221;-64
2023/05/16 02:57:42;;;;;;;41.33;28.93;;;;;;;;;;5066222;28;20225;-64
2023/05/16 03:00:12;;;;;;;41.10;29.13;;;;;;;;;;5055587;28;20214;-64
2023/05/16 03:02:43;;;;;;;45.47;32.03;;;;;;;;;;5056084;28;20240;-64
2023/05/16 03:05:11;;;;;;;44.67;31.10;;;;;;;;;;5061635;28;20201;-65
2023/05/16 03:07:38;;;;;;;44.27;31.27;;;;;;;;;;5039966;28;20249;-62
2023/05/16 03:10:06;;;;;;;49.73;34.03;;;;;;;;;;5040505;28;20309;-63
2023/05/16 03:12:34;;;;;;;50.33;32.63;;;;;;;;;;5055847;28;20241;-63
2023/05/16 03:15:02;;;;;;;51.00;34.23;;;;;;;;;;5046436;28;20264;-64
2023/05/16 03:17:30;;;;;;;52.57;34.00;;;;;;;;;;5053610;28;20297;-64
2023/05/16 03:19:58;;;;;;;49.60;34.40;;;;;;;;;;5058540;28;20202;-63
2023/05/16 03:22:26;;;;;;;55.63;36.80;;;;;;;;;;5066763;28;20233;-63
2023/05/16 03:24:54;;;;;;;51.37;34.40;;;;;;;;;;5056867;28;20688;-63
2023/05/16 03:27:22;;;;;;;57.47;36.43;;;;;;;;;;5044431;28;20221;-63
2023/05/16 03:29:50;;;;;;;61.23;38.20;;;;;;;;;;5056391;28;20210;-63
2023/05/16 03:32:18;;;;;;;61.20;37.37;;;;;;;;;;5035114;28;20202;-63
2023/05/16 03:34:45;;;;;;;61.87;37.40;;;;;;;;;;5041932;28;20225;-63
2023/05/16 03:37:14;;;;;;;64.27;38.27;;;;;;;;;;5057664;28;20236;-64
2023/05/16 03:39:42;;;;;;;58.30;37.03;;;;;;;;;;5056511;28;20288;-63
2023/05/16 03:42:10;;;;;;;59.93;37.50;;;;;;;;;;5035905;28;20213;-64
2023/05/16 03:44:37;;;;;;;63.53;39.20;;;;;;;;;;5049516;28;20209;-64
2023/05/16 03:47:05;;;;;;;66.87;38.67;;;;;;;;;;5059280;28;20349;-64
2023/05/16 03:49:32;;;;;;;68.43;39.10;;;;;;;;;;5057761;28;20214;-63
2023/05/16 03:52:00;;;;;;;66.00;39.13;;;;;;;;;;5038343;28;20233;-65
2023/05/16 03:54:28;;;;;;;69.47;40.50;;;;;;;;;;5056574;28;20278;-64
2023/05/16 03:56:55;;;;;;;67.37;40.37;;;;;;;;;;5045369;28;20252;-64
2023/05/16 03:59:24;;;;;;;65.47;39.17;;;;;;;;;;5034146;28;20198;-63
2023/05/16 04:01:52;;;;;;;74.93;41.93;;;;;;;;;;5053170;28;20247;-64
2023/05/16 04:04:19;;;;;;;75.97;42.73;;;;;;;;;;5048062;28;20198;-62
2023/05/16 04:06:47;;;;;;;82.67;43.27;;;;;;;;;;5035643;28;20212;-63
2023/05/16 04:09:14;;;;;;;82.37;43.27;;;;;;;;;;5039492;28;20209;-65
2023/05/16 04:11:42;;;;;;;82.17;44.27;;;;;;;;;;5028069;28;20725;-65
2023/05/16 04:14:09;;;;;;;78.60;43.00;;;;;;;;;;5036591;28;20221;-63
2023/05/16 04:16:38;;;;;;;81.60;44.17;;;;;;;;;;5027593;28;20201;-64
2023/05/16 04:19:05;;;;;;;81.50;44.13;;;;;;;;;;5023380;28;20210;-63
2023/05/16 04:21:34;;;;;;;85.43;45.80;;;;;;;;;;5045594;28;20376;-64
2023/05/16 04:24:02;;;;;;;86.97;47.47;;;;;;;;;;5060411;28;20236;-63
2023/05/16 04:26:30;;;;;;;86.83;43.23;;;;;;;;;;5036737;28;20320;-63
2023/05/16 04:28:59;;;;;;;81.13;42.70;;;;;;;;;;5047318;28;20482;-63
2023/05/16 04:31:27;;;;;;;78.10;43.37;;;;;;;;;;5060997;28;20219;-63
2023/05/16 04:33:58;;;;;;;85.07;43.97;;;;;;;;;;5047089;28;20680;-65
2023/05/16 04:36:29;;;;;;;81.53;44.07;;;;;;;;;;5053717;28;20252;-64
2023/05/16 04:38:57;;;;;;;80.33;43.57;;;;;;;;;;5071434;28;20653;-63
2023/05/16 04:41:24;;;;;;;82.87;44.13;;;;;;;;;;5055970;28;20649;-64
2023/05/16 04:43:52;;;;;;;84.33;44.23;;;;;;;;;;5045022;28;20746;-64
2023/05/16 04:46:20;;;;;;;81.03;43.93;;;;;;;;;;5060514;28;20202;-65
2023/05/16 04:48:47;;;;;;;87.63;45.40;;;;;;;;;;5065162;28;20245;-64
2023/05/16 04:51:14;;;;;;;80.07;44.20;;;;;;;;;;5069519;28;20224;-64
2023/05/16 04:53:42;;;;;;;80.37;44.57;;;;;;;;;;5048152;28;20214;-64
2023/05/16 04:56:09;;;;;;;78.43;44.77;;;;;;;;;;5045657;28;20213;-64
2023/05/16 04:58:37;;;;;;;78.90;45.37;;;;;;;;;;5056340;28;20259;-64
2023/05/16 05:01:06;;;;;;;77.57;44.57;;;;;;;;;;5042130;28;20206;-63
2023/05/16 05:03:33;;;;;;;77.10;43.77;;;;;;;;;;5059120;28;20738;-62
2023/05/16 05:06:01;;;;;;;75.17;43.83;;;;;;;;;;5054890;28;20201;-62
2023/05/16 05:08:29;;;;;;;71.17;42.00;;;;;;;;;;5045057;28;20228;-63
2023/05/16 05:10:57;;;;;;;68.37;42.40;;;;;;;;;;5045457;28;20198;-65
2023/05/16 05:13:25;;;;;;;71.17;40.20;;;;;;;;;;5047327;28;20198;-63
2023/05/16 05:15:52;;;;;;;67.20;40.43;;;;;;;;;;5040458;28;20272;-64
2023/05/16 05:18:19;;;;;;;67.93;40.40;;;;;;;;;;5064060;28;20416;-63
2023/05/16 05:20:47;;;;;;;66.97;41.13;;;;;;;;;;5042919;28;20301;-64
2023/05/16 05:23:14;;;;;;;63.03;39.17;;;;;;;;;;5070101;28;20300;-64
2023/05/16 05:25:42;;;;;;;66.03;40.77;;;;;;;;;;5082972;28;20561;-63
2023/05/16 05:28:11;;;;;;;60.83;38.07;;;;;;;;;;5066264;28;20723;-64
2023/05/16 05:30:38;;;;;;;58.43;37.30;;;;;;;;;;5056345;28;20234;-64
2023/05/16 05:33:10;;;;;;;54.60;37.53;;;;;;;;;;5040480;28;20263;-65
2023/05/16 05:35:38;;;;;;;54.20;36.73;;;;;;;;;;5055514;28;20232;-63
2023/05/16 05:38:05;;;;;;;51.93;36.07;;;;;;;;;;5045757;28;20669;-63
2023/05/16 05:40:34;;;;;;;53.30;35.43;;;;;;;;;;5042637;28;20765;-63
2023/05/16 05:43:02;;;;;;;50.30;35.30;;;;;;;;;;5040439;28;20205;-64
2023/05/16 05:45:30;;;;;;;52.37;36.13;;;;;;;;;;5053089;28;20213;-63
2023/05/16 05:48:00;;;;;;;52.23;35.63;;;;;;;;;;5040937;28;20228;-64
2023/05/16 05:50:27;;;;;;;50.57;35.93;;;;;;;;;;5055337;28;20218;-63
2023/05/16 05:52:55;;;;;;;53.87;37.00;;;;;;;;;;5037264;28;20207;-64
2023/05/16 05:55:22;;;;;;;50.17;34.60;;;;;;;;;;5065178;28;20278;-64
2023/05/16 05:57:51;;;;;;;50.07;35.07;;;;;;;;;;5056747;28;20222;-64
2023/05/16 06:00:19;;;;;;;48.87;34.80;;;;;;;;;;5066373;28;20700;-62
2023/05/16 06:02:47;;;;;;;51.63;35.43;;;;;;;;;;5054487;28;20201;-64
2023/05/16 06:05:15;;;;;;;50.43;35.30;;;;;;;;;;5044346;28;20655;-63
2023/05/16 06:07:43;;;;;;;47.77;33.63;;;;;;;;;;5057065;28;20244;-64
2023/05/16 06:10:10;;;;;;;52.57;34.80;;;;;;;;;;5046564;28;20202;-64
2023/05/16 06:12:38;;;;;;;53.80;35.33;;;;;;;;;;5046406;28;20659;-64
2023/05/16 06:15:05;;;;;;;51.30;35.13;;;;;;;;;;5067032;28;20305;-63
2023/05/16 06:17:33;;;;;;;50.27;35.63;;;;;;;;;;5042539;28;20945;-64
2023/05/16 06:20:00;;;;;;;52.73;36.83;;;;;;;;;;5042022;28;20839;-64
2023/05/16 06:22:28;;;;;;;56.53;36.93;;;;;;;;;;5064990;28;20617;-64
2023/05/16 06:24:55;;;;;;;55.30;37.17;;;;;;;;;;5056333;28;20221;-64
2023/05/16 06:27:23;;;;;;;54.03;36.03;;;;;;;;;;5046315;28;20296;-64
2023/05/16 06:29:50;;;;;;;62.93;39.13;;;;;;;;;;5045854;28;20229;-64
2023/05/16 06:32:18;;;;;;;55.37;36.73;;;;;;;;;;5043772;28;20206;-64
2023/05/16 06:34:45;;;;;;;58.33;37.30;;;;;;;;;;5049022;28;20661;-64
2023/05/16 06:37:13;;;;;;;61.00;38.53;;;;;;;;;;5064046;28;20229;-63
2023/05/16 06:39:40;;;;;;;62.23;38.40;;;;;;;;;;5043605;28;20204;-62
2023/05/16 06:42:08;;;;;;;62.53;39.13;;;;;;;;;;5065056;28;20197;-64
2023/05/16 06:44:35;;;;;;;60.40;37.80;;;;;;;;;;5036628;28;20296;-62
2023/05/16 06:47:03;;;;;;;62.60;38.87;;;;;;;;;;5043425;28;20261;-62
2023/05/16 06:49:30;;;;;;;67.27;40.80;;;;;;;;;;5025993;28;20217;-64
2023/05/16 06:51:58;;;;;;;72.23;41.70;;;;;;;;;;5059165;28;20197;-62
2023/05/16 06:54:25;;;;;;;63.67;40.33;;;;;;;;;;5042640;28;20206;-62
2023/05/16 06:56:52;;;;;;;67.87;40.00;;;;;;;;;;5053540;28;20288;-64
2023/05/16 06:59:20;;;;;;;67.60;40.43;;;;;;;;;;5059045;28;20288;-64
2023/05/16 07:01:50;;;;;;;70.23;40.90;;;;;;;;;;5045193;28;20202;-62
2023/05/16 07:04:17;;;;;;;74.67;43.67;;;;;;;;;;5061920;28;20747;-63
2023/05/16 07:06:46;;;;;;;70.70;43.27;;;;;;;;;;5067288;28;20209;-63
2023/05/16 07:09:13;;;;;;;74.67;44.03;;;;;;;;;;5054191;28;20213;-63
2023/05/16 07:11:41;;;;;;;101.80;42.40;;;;;;;;;;5068474;28;20244;-62
2023/05/16 07:14:08;;;;;;;84.17;44.50;;;;;;;;;;5043237;28;21266;-62
2023/05/16 07:16:36;;;;;;;75.50;42.80;;;;;;;;;;5063645;28;20225;-63
2023/05/16 07:19:03;;;;;;;85.60;44.03;;;;;;;;;;5074724;28;20217;-63
2023/05/16 07:21:31;;;;;;;86.53;45.67;;;;;;;;;;5039727;28;20213;-63
2023/05/16 07:23:58;;;;;;;83.87;44.43;;;;;;;;;;5046567;28;20224;-63
2023/05/16 07:26:26;;;;;;;79.50;43.53;;;;;;;;;;5063869;28;20236;-64
2023/05/16 07:28:54;;;;;;;76.37;42.07;;;;;;;;;;5037701;28;20225;-62
2023/05/16 07:31:22;;;;;;;71.40;41.43;;;;;;;;;;5039764;28;20596;-62
2023/05/16 07:33:51;;;;;;;72.43;42.23;;;;;;;;;;5062222;28;20212;-64
2023/05/16 07:36:18;;;;;;;73.50;42.83;;;;;;;;;;5042437;28;20221;-64
2023/05/16 07:38:46;;;;;;;68.20;41.50;;;;;;;;;;5067057;28;20233;-64
2023/05/16 07:41:13;;;;;;;73.03;42.83;;;;;;;;;;5038988;28;20197;-64
2023/05/16 07:43:41;;;;;;;74.80;42.63;;;;;;;;;;5048188;28;20587;-64
2023/05/16 07:46:08;;;;;;;67.97;41.83;;;;;;;;;;5083102;28;20209;-64
2023/05/16 07:48:37;;;;;;;68.00;40.57;;;;;;;;;;5075280;28;20224;-63
2023/05/16 07:51:05;;;;;;;71.30;42.67;;;;;;;;;;5046411;28;20627;-64
2023/05/16 07:53:33;;;;;;;68.50;40.90;;;;;;;;;;5045920;28;20205;-64
2023/05/16 07:56:02;;;;;;;60.30;39.33;;;;;;;;;;5058508;28;20249;-62
2023/05/16 07:58:30;;;;;;;67.73;41.07;;;;;;;;;;5064747;28;20427;-64
2023/05/16 08:00:57;;;;;;;63.07;39.97;;;;;;;;;;5066827;28;20212;-64
2023/05/16 08:03:25;;;;;;;61.87;38.83;;;;;;;;;;5048019;28;20201;-64
2023/05/16 08:05:53;;;;;;;66.37;39.73;;;;;;;;;;5044892;28;20206;-65
2023/05/16 08:08:22;;;;;;;64.03;39.73;;;;;;;;;;5052917;28;20587;-64
2023/05/16 08:10:50;;;;;;;63.17;40.40;;;;;;;;;;5043932;28;20623;-64
2023/05/16 08:13:18;;;;;;;61.90;39.33;;;;;;;;;;5046454;28;20214;-62
2023/05/16 08:15:45;;;;;;;58.20;36.90;;;;;;;;;;5067521;28;20233;-64
2023/05/16 08:18:14;;;;;;;58.23;37.23;;;;;;;;;;5047052;28;20217;-65
2023/05/16 08:20:41;;;;;;;61.07;37.33;;;;;;;;;;5045261;28;20209;-63
2023/05/16 08:23:09;;;;;;;57.33;38.03;;;;;;;;;;5058087;28;20956;-64
2023/05/16 08:25:37;;;;;;;61.27;39.60;;;;;;;;;;5021435;28;20217;-63
2023/05/16 08:28:04;;;;;;;61.87;40.10;;;;;;;;;;5038822;28;20218;-63
2023/05/16 08:30:35;;;;;;;60.53;37.30;;;;;;;;;;5041234;28;20224;-63
2023/05/16 08:33:03;;;;;;;60.87;37.97;;;;;;;;;;5068218;28;20198;-63
2023/05/16 08:35:31;;;;;;;58.27;37.50;;;;;;;;;;5072710;28;20759;-64
2023/05/16 08:37:59;;;;;;;64.20;38.47;;;;;;;;;;5046088;28;20745;-63
2023/05/16 08:40:27;;;;;;;58.07;37.30;;;;;;;;;;5043855;28;20208;-64
2023/05/16 08:42:54;;;;;;;58.20;39.10;;;;;;;;;;5063309;28;20206;-63
2023/05/16 08:45:23;;;;;;;58.33;37.60;;;;;;;;;;5063745;28;20620;-64
2023/05/16 08:47:53;;;;;;;59.00;37.37;;;;;;;;;;5042612;28;20762;-62
2023/05/16 08:50:21;;;;;;;54.43;35.23;;;;;;;;;;5064775;28;20210;-63
2023/05/16 08:52:51;;;;;;;52.53;36.27;;;;;;;;;;5045622;28;20302;-62
2023/05/16 08:55:19;;;;;;;55.87;38.00;;;;;;;;;;5062534;28;20225;-63
2023/05/16 08:57:48;;;;;;;55.33;37.43;;;;;;;;;;5037345;28;20710;-63
2023/05/16 09:00:17;;;;;;;56.93;37.77;;;;;;;;;;5065308;28;20198;-63
2023/05/16 09:02:45;;;;;;;57.13;35.80;;;;;;;;;;5065604;28;20201;-63
2023/05/16 09:05:13;;;;;;;53.93;35.77;;;;;;;;;;5043728;28;20598;-64
2023/05/16 09:07:41;;;;;;;56.03;37.13;;;;;;;;;;5057444;28;20281;-64
2023/05/16 09:10:09;;;;;;;55.33;36.97;;;;;;;;;;5061100;28;21016;-64
2023/05/16 09:12:37;;;;;;;47.90;31.37;;;;;;;;;;5041703;28;20868;-63
2023/05/16 09:15:06;;;;;;;44.77;30.50;;;;;;;;;;5038389;28;20531;-63
2023/05/16 09:17:37;;;;;;;41.07;29.70;;;;;;;;;;5028790;28;20221;-64
2023/05/16 09:20:11;;;;;;;39.33;29.17;;;;;;;;;;5063345;28;20237;-61
2023/05/16 09:22:38;;;;;;;39.77;29.20;;;;;;;;;;5069041;28;20205;-63
2023/05/16 09:25:06;;;;;;;40.63;29.40;;;;;;;;;;5061888;28;20201;-65
2023/05/16 09:27:41;;;;;;;41.30;30.27;;;;;;;;;;5062008;28;20351;-64
2023/05/16 09:30:09;;;;;;;35.37;27.30;;;;;;;;;;5066445;28;20680;-64
2023/05/16 09:32:36;;;;;;;37.37;27.87;;;;;;;;;;5047139;28;20665;-64
2023/05/16 09:35:04;;;;;;;36.27;26.33;;;;;;;;;;5058091;28;20204;-61
2023/05/16 09:37:31;;;;;;;35.80;27.03;;;;;;;;;;5056131;28;20244;-63
2023/05/16 09:39:59;;;;;;;34.33;26.83;;;;;;;;;;5063216;28;20198;-64
2023/05/16 09:42:26;;;;;;;30.23;25.33;;;;;;;;;;5050280;28;20280;-64
2023/05/16 09:44:55;;;;;;;30.50;24.70;;;;;;;;;;5066266;28;20201;-61
2023/05/16 09:47:23;;;;;;;28.97;23.83;;;;;;;;;;5069791;28;20686;-63
2023/05/16 09:49:53;;;;;;;26.67;20.73;;;;;;;;;;5065558;28;20210;-62
2023/05/16 09:52:21;;;;;;;28.80;22.37;;;;;;;;;;5052695;28;20232;-65
2023/05/16 09:54:48;;;;;;;27.63;21.87;;;;;;;;;;5038471;28;20705;-64
2023/05/16 09:57:20;;;;;;;27.17;23.13;;;;;;;;;;5058704;28;20764;-64
2023/05/16 09:59:48;;;;;;;29.23;23.53;;;;;;;;;;5054036;28;20647;-64
2023/05/16 10:02:17;;;;;;;28.53;23.77;;;;;;;;;;5042335;28;20645;-63
2023/05/16 10:04:45;;;;;;;26.83;22.53;;;;;;;;;;5064490;28;20199;-64
2023/05/16 10:07:13;;;;;;;25.50;21.63;;;;;;;;;;5039306;28;20222;-62
2023/05/16 10:09:41;;;;;;;25.90;21.90;;;;;;;;;;5054467;28;20210;-62
2023/05/16 10:12:10;;;;;;;26.57;21.87;;;;;;;;;;5030540;28;20213;-65
2023/05/16 10:14:38;;;;;;;24.10;21.20;;;;;;;;;;5035165;28;20229;-63
2023/05/16 10:17:06;;;;;;;23.43;20.47;;;;;;;;;;5039163;28;20226;-64
2023/05/16 10:19:37;;;;;;;23.77;21.23;;;;;;;;;;5032781;28;20610;-61
2023/05/16 10:22:05;;;;;;;24.17;21.13;;;;;;;;;;5052367;28;20208;-65
2023/05/16 10:24:48;;;;;;;25.97;21.20;;;;;;;;;;5044745;28;20305;-63
2023/05/16 10:27:15;;;;;;;26.10;21.90;;;;;;;;;;5059439;28;20279;-63
2023/05/16 10:29:45;;;;;;;29.03;24.77;;;;;;;;;;5058130;28;20212;-62
2023/05/16 10:32:23;;;;;;;23.07;20.63;;;;;;;;;;5066135;28;21008;-63
2023/05/16 10:34:51;;;;;;;23.77;21.17;;;;;;;;;;5073703;28;20262;-63
2023/05/16 10:37:19;;;;;;;25.43;21.97;;;;;;;;;;5042248;28;20477;-63
2023/05/16 10:39:46;;;;;;;24.80;21.57;;;;;;;;;;5060133;28;20304;-62
2023/05/16 10:42:17;;;;;;;21.83;19.53;;;;;;;;;;5063973;28;20204;-64
2023/05/16 10:44:44;;;;;;;23.73;20.43;;;;;;;;;;5056802;28;20228;-63
2023/05/16 10:47:24;;;;;;;24.83;19.37;;;;;;;;;;5042502;28;20713;-64
2023/05/16 10:49:52;;;;;;;22.27;19.93;;;;;;;;;;5064962;28;20296;-64
2023/05/16 10:52:19;;;;;;;21.87;19.57;;;;;;;;;;5051341;28;20238;-64
2023/05/16 10:54:51;;;;;;;21.97;19.60;;;;;;;;;;5033135;28;20206;-64
2023/05/16 10:57:20;;;;;;;20.57;18.37;;;;;;;;;;5033896;28;20310;-63
2023/05/16 10:59:48;;;;;;;21.00;18.80;;;;;;;;;;5031783;28;20219;-64
2023/05/16 11:02:33;;;;;;;19.87;17.70;;;;;;;;;;5053054;28;20212;-64
2023/05/16 11:05:02;;;;;;;19.70;16.97;;;;;;;;;;5038443;28;20232;-63
2023/05/16 11:07:33;;;;;;;19.23;17.23;;;;;;;;;;5034396;28;20316;-63
2023/05/16 11:10:14;;;;;;;20.33;18.13;;;;;;;;;;5062363;28;20210;-63
2023/05/16 11:12:45;;;;;;;19.53;17.13;;;;;;;;;;5056747;28;20297;-62
2023/05/16 11:15:19;;;;;;;21.60;16.77;;;;;;;;;;5054414;28;20464;-64
2023/05/16 11:17:46;;;;;;;18.83;16.83;;;;;;;;;;5038449;28;20257;-62
2023/05/16 11:20:27;;;;;;;17.90;16.00;;;;;;;;;;5068398;28;20197;-64
2023/05/16 11:23:27;;;;;;;16.90;15.10;;;;;;;;;;5063065;28;20197;-64
2023/05/16 11:25:56;;;;;;;18.43;16.43;;;;;;;;;;4990991;28;20205;-62
2023/05/16 11:28:25;;;;;;;17.00;15.20;;;;;;;;;;5038078;28;20226;-64
2023/05/16 11:30:55;;;;;;;19.53;15.67;;;;;;;;;;5054496;28;20214;-64
2023/05/16 11:33:23;;;;;;;19.40;16.27;;;;;;;;;;5047564;28;20566;-64
2023/05/16 11:36:01;;;;;;;18.43;15.07;;;;;;;;;;5074235;28;20282;-65
2023/05/16 11:38:42;;;;;;;18.90;15.70;;;;;;;;;;5059696;28;20420;-64
2023/05/16 11:41:10;;;;;;;18.97;16.93;;;;;;;;;;5056650;28;20217;-63
2023/05/16 11:43:41;;;;;;;17.77;15.93;;;;;;;;;;5055178;28;20198;-64
2023/05/16 11:46:12;;;;;;;18.57;16.40;;;;;;;;;;5057211;28;20210;-62
2023/05/16 11:48:40;;;;;;;19.87;17.10;;;;;;;;;;5047603;28;20806;-63
2023/05/16 11:51:08;;;;;;;20.13;17.83;;;;;;;;;;5053035;28;20211;-64
2023/05/16 11:53:37;;;;;;;18.43;16.00;;;;;;;;;;5060463;28;20221;-64
2023/05/16 11:56:04;;;;;;;21.00;17.80;;;;;;;;;;5041118;28;20236;-64
2023/05/16 11:58:32;;;;;;;22.97;16.87;;;;;;;;;;5036893;28;20216;-63
2023/05/16 12:00:59;;;;;;;21.17;18.23;;;;;;;;;;5068893;28;20670;-63
2023/05/16 12:03:27;;;;;;;21.20;18.37;;;;;;;;;;5041209;28;20547;-63
2023/05/16 12:05:56;;;;;;;23.30;20.47;;;;;;;;;;5053582;28;20582;-63
2023/05/16 12:08:25;;;;;;;19.57;16.67;;;;;;;;;;5047650;28;20227;-64
2023/05/16 12:10:53;;;;;;;22.60;17.17;;;;;;;;;;5039077;28;20308;-63
2023/05/16 12:13:22;;;;;;;21.57;18.70;;;;;;;;;;5036945;28;20220;-63
2023/05/16 12:15:51;;;;;;;22.07;18.73;;;;;;;;;;5038378;28;20201;-62
2023/05/16 12:18:20;;;;;;;20.60;17.73;;;;;;;;;;5052439;28;20262;-63
2023/05/16 12:20:49;;;;;;;20.50;17.30;;;;;;;;;;5058755;28;20201;-63
2023/05/16 12:23:16;;;;;;;19.95;17.27;;;;;;;;;;5049472;28;20293;-62
2023/05/16 12:25:45;;;;;;;20.97;18.13;;;;;;;;;;5046136;28;20205;-64
2023/05/16 12:28:13;;;;;;;20.27;17.90;;;;;;;;;;5033205;28;20789;-64
2023/05/16 12:30:42;;;;;;;24.17;18.57;;;;;;;;;;5051879;28;20208;-64
2023/05/16 12:33:13;;;;;;;23.83;18.63;;;;;;;;;;5056252;28;20197;-63
2023/05/16 12:35:43;;;;;;;21.60;17.40;;;;;;;;;;5066302;28;20198;-63
2023/05/16 12:38:11;;;;;;;21.23;17.90;;;;;;;;;;5065008;28;20234;-65
2023/05/16 12:40:40;;;;;;;18.10;16.20;;;;;;;;;;5044726;28;20718;-63
2023/05/16 12:43:18;;;;;;;20.93;17.87;;;;;;;;;;5063786;28;20387;-63
2023/05/16 12:45:53;;;;;;;22.70;17.60;;;;;;;;;;5045006;28;20201;-64
2023/05/16 12:48:22;;;;;;;21.63;17.70;;;;;;;;;;5054313;28;20224;-64
2023/05/16 12:50:49;;;;;;;22.07;17.87;;;;;;;;;;5056632;28;20285;-64
2023/05/16 12:53:17;;;;;;;20.57;17.33;;;;;;;;;;5043433;28;20194;-63
2023/05/16 12:55:45;;;;;;;21.40;18.53;;;;;;;;;;5044971;28;20194;-63
2023/05/16 12:58:13;;;;;;;23.40;18.17;;;;;;;;;;5049087;28;20270;-62
2023/05/16 13:00:40;;;;;;;26.13;19.90;;;;;;;;;;5064779;28;20273;-64
2023/05/16 13:03:08;;;;;;;23.77;18.13;;;;;;;;;;5052332;28;20198;-62
2023/05/16 13:05:35;;;;;;;21.90;18.27;;;;;;;;;;5048403;28;20198;-63
2023/05/16 13:08:03;;;;;;;24.00;19.40;;;;;;;;;;5048741;28;20225;-64
2023/05/16 13:10:30;;;;;;;23.70;18.77;;;;;;;;;;5045259;28;20690;-63
2023/05/16 13:12:58;;;;;;;24.63;18.90;;;;;;;;;;5050424;28;20212;-63
2023/05/16 13:15:26;;;;;;;25.57;18.73;;;;;;;;;;5055345;28;20647;-63
2023/05/16 13:17:55;;;;;;;26.83;18.87;;;;;;;;;;5036021;28;20225;-64
2023/05/16 13:20:22;;;;;;;27.97;20.27;;;;;;;;;;5074828;28;20256;-62
2023/05/16 13:22:49;;;;;;;37.33;23.73;;;;;;;;;;5068455;28;20209;-64
2023/05/16 13:25:17;;;;;;;30.50;21.33;;;;;;;;;;5055764;28;20256;-63
2023/05/16 13:27:45;;;;;;;50.63;30.67;;;;;;;;;;5041974;28;20244;-63
2023/05/16 13:30:12;;;;;;;60.83;35.10;;;;;;;;;;5044208;28;20212;-64
2023/05/16 13:32:40;;;;;;;38.40;24.63;;;;;;;;;;5058206;28;20199;-64
2023/05/16 13:35:09;;;;;;;23.87;16.97;;;;;;;;;;5069156;28;20222;-62
2023/05/16 13:37:37;;;;;;;24.30;18.83;;;;;;;;;;5052861;28;20229;-64
2023/05/16 13:40:07;;;;;;;17.57;13.90;;;;;;;;;;5085013;28;20194;-66
2023/05/16 13:42:35;;;;;;;13.80;11.33;;;;;;;;;;5038965;28;26764;-63
2023/05/16 13:45:02;;;;;;;12.43;10.03;;;;;;;;;;5057420;28;20583;-62
2023/05/16 13:47:31;;;;;;;11.53;9.43;;;;;;;;;;5034252;28;20236;-65
2023/05/16 13:50:04;;;;;;;13.33;10.27;;;;;;;;;;5038833;28;20220;-63
2023/05/16 13:52:32;;;;;;;11.43;9.43;;;;;;;;;;5055064;28;20217;-64
2023/05/16 13:55:02;;;;;;;11.53;9.57;;;;;;;;;;5039650;28;20715;-64
2023/05/16 13:57:30;;;;;;;12.17;10.33;;;;;;;;;;5066077;28;20320;-62
2023/05/16 13:59:57;;;;;;;13.77;10.43;;;;;;;;;;5054316;28;20554;-60
2023/05/16 14:02:45;;;;;;;16.80;11.93;;;;;;;;;;5052895;28;20265;-63
2023/05/16 14:05:12;;;;;;;14.60;12.13;;;;;;;;;;5056570;28;20229;-64
2023/05/16 14:07:40;;;;;;;16.30;12.73;;;;;;;;;;5061923;28;20230;-64
2023/05/16 14:10:08;;;;;;;16.13;13.43;;;;;;;;;;5051444;28;20205;-63
2023/05/16 14:12:36;;;;;;;17.83;13.53;;;;;;;;;;5043608;28;20212;-63
2023/05/16 14:15:04;;;;;;;17.50;14.13;;;;;;;;;;5062432;28;20198;-63
2023/05/16 14:17:32;;;;;;;18.37;14.77;;;;;;;;;;5041818;28;20718;-63
2023/05/16 14:20:00;;;;;;;17.90;14.27;;;;;;;;;;5072657;28;20208;-64
2023/05/16 14:22:27;;;;;;;19.97;15.33;;;;;;;;;;5034266;28;20209;-63
2023/05/16 14:24:55;;;;;;;18.30;14.43;;;;;;;;;;5061929;28;20194;-63
2023/05/16 14:27:22;;;;;;;16.77;14.03;;;;;;;;;;5052333;28;20461;-63